Time;durP1;ratioP1;P1;durP2;ratioP2;P2;SDS_P1;SDS_P2;PMS_P1;PMS_P2;Temp;Humidity;BMP_temperature;BMP_pressure;BME280_temperature;BME280_humidity;BME280_pressure;Samples;Min_cycle;Max_cycle;Signal;HPM_P1;HPM_P2
2021/04/02 00:01:52;;;;;;;3.70;1.10;;;18.20;50.80;;;;;;5055288;28;20412;-57
2021/04/02 00:04:18;;;;;;;1.63;0.93;;;18.10;50.50;;;;;;5046970;28;20095;-58
2021/04/02 00:06:43;;;;;;;1.40;0.93;;;18.10;50.70;;;;;;5054310;28;20029;-57
2021/04/02 00:09:11;;;;;;;2.65;1.40;;;18.00;51.90;;;;;;5066828;28;20037;-58
2021/04/02 00:11:37;;;;;;;2.10;1.20;;;18.10;51.30;;;;;;5068302;28;20028;-57
2021/04/02 00:14:03;;;;;;;4.75;1.45;;;18.00;51.00;;;;;;5068520;28;20029;-57
2021/04/02 00:16:29;;;;;;;2.75;1.30;;;18.00;51.10;;;;;;5067960;28;20044;-58
2021/04/02 00:18:54;;;;;;;3.35;1.30;;;17.90;52.70;;;;;;5069121;28;20052;-57
2021/04/02 00:21:20;;;;;;;2.17;1.02;;;17.90;52.50;;;;;;5068758;28;20162;-57
2021/04/02 00:23:46;;;;;;;3.10;1.33;;;17.80;52.40;;;;;;5068487;28;20082;-57
2021/04/02 00:26:17;;;;;;;1.60;1.10;;;17.70;52.50;;;;;;5066430;28;20023;-57
2021/04/02 00:28:43;;;;;;;2.08;1.00;;;17.50;52.80;;;;;;5068161;28;20034;-57
2021/04/02 00:31:09;;;;;;;2.45;1.35;;;17.60;52.80;;;;;;5068159;28;20081;-57
2021/04/02 00:33:35;;;;;;;2.95;1.60;;;17.50;52.10;;;;;;5067811;28;20033;-57
2021/04/02 00:36:02;;;;;;;1.48;0.85;;;17.50;54.40;;;;;;5067479;28;20047;-57
2021/04/02 00:38:29;;;;;;;1.60;1.23;;;17.30;59.30;;;;;;5067701;28;20035;-57
2021/04/02 00:41:10;;;;;;;2.55;1.20;;;17.10;61.00;;;;;;5068829;28;20032;-58
2021/04/02 00:43:42;;;;;;;2.40;1.20;;;17.10;59.40;;;;;;5067901;28;20013;-57
2021/04/02 00:46:10;;;;;;;2.60;1.10;;;17.10;57.40;;;;;;5067384;28;20039;-57
2021/04/02 00:48:37;;;;;;;1.15;1.00;;;17.20;55.90;;;;;;5067463;28;20441;-57
2021/04/02 00:51:08;;;;;;;1.85;0.90;;;17.20;54.80;;;;;;5067983;28;20032;-57
2021/04/02 00:53:38;;;;;;;1.83;1.30;;;17.00;55.10;;;;;;5049157;28;20017;-57
2021/04/02 00:56:06;;;;;;;2.05;1.35;;;17.00;55.20;;;;;;5047730;28;20025;-57
2021/04/02 00:58:32;;;;;;;1.35;1.00;;;16.90;54.90;;;;;;5047373;28;20013;-57
2021/04/02 01:00:59;;;;;;;1.88;0.90;;;16.90;54.70;;;;;;5056734;28;20098;-57
2021/04/02 01:03:25;;;;;;;1.48;1.02;;;16.90;56.90;;;;;;5068036;28;20024;-57
2021/04/02 01:05:54;;;;;;;2.33;1.20;;;16.90;59.80;;;;;;5067784;28;20074;-57
2021/04/02 01:08:23;;;;;;;2.60;0.90;;;16.60;62.30;;;;;;5067371;28;20064;-57
2021/04/02 01:10:52;;;;;;;3.33;1.63;;;16.60;63.90;;;;;;5067158;28;20016;-57
2021/04/02 01:13:40;;;;;;;2.05;1.48;;;16.50;64.30;;;;;;5067570;28;20059;-57
2021/04/02 01:16:09;;;;;;;2.95;1.30;;;16.60;61.00;;;;;;5067445;28;20037;-57
2021/04/02 01:18:40;;;;;;;1.90;1.00;;;16.50;58.50;;;;;;5052077;28;20056;-57
2021/04/02 01:21:18;;;;;;;2.45;1.60;;;16.50;58.80;;;;;;5047373;28;20032;-57
2021/04/02 01:23:58;;;;;;;3.78;1.20;;;16.40;60.00;;;;;;5047122;28;20526;-57
2021/04/02 01:26:56;;;;;;;2.97;1.33;;;16.50;60.80;;;;;;5047609;28;20031;-57
2021/04/02 01:29:32;;;;;;;2.58;1.23;;;16.20;64.30;;;;;;5057538;28;20012;-57
2021/04/02 01:32:01;;;;;;;1.98;1.20;;;16.10;67.00;;;;;;5067707;28;20024;-57
2021/04/02 01:34:35;;;;;;;1.33;1.15;;;15.60;69.00;;;;;;5065675;28;20107;-57
2021/04/02 01:37:06;;;;;;;2.35;1.13;;;15.40;67.70;;;;;;5066843;28;20028;-57
2021/04/02 01:39:35;;;;;;;1.77;1.00;;;15.50;59.90;;;;;;5066557;28;20020;-57
2021/04/02 01:42:04;;;;;;;2.85;1.15;;;15.60;57.80;;;;;;5066872;28;20110;-58
2021/04/02 01:44:33;;;;;;;2.22;1.30;;;15.80;56.50;;;;;;5047329;28;20451;-57
2021/04/02 01:47:00;;;;;;;1.10;1.00;;;15.90;57.10;;;;;;5046541;28;20549;-57
2021/04/02 01:49:30;;;;;;;1.30;0.82;;;15.60;60.70;;;;;;5046485;28;20055;-57
2021/04/02 01:51:56;;;;;;;1.40;1.00;;;15.50;65.50;;;;;;5046616;28;20041;-57
2021/04/02 01:54:22;;;;;;;4.10;1.77;;;15.50;59.60;;;;;;5047126;28;20013;-57
2021/04/02 01:56:50;;;;;;;2.78;1.20;;;15.80;62.90;;;;;;5046543;28;20624;-57
2021/04/02 01:59:18;;;;;;;2.60;1.38;;;16.00;60.00;;;;;;5046630;28;20029;-57
2021/04/02 02:01:45;;;;;;;4.03;1.25;;;15.90;57.80;;;;;;5046372;28;20036;-57
2021/04/02 02:04:11;;;;;;;2.00;1.35;;;15.60;60.90;;;;;;5046023;28;20025;-57
2021/04/02 02:06:37;;;;;;;1.85;1.13;;;15.50;65.00;;;;;;5045213;28;20418;-57
2021/04/02 02:09:11;;;;;;;4.03;1.33;;;15.50;66.80;;;;;;5046265;28;20040;-57
2021/04/02 02:11:39;;;;;;;2.28;1.13;;;15.50;64.00;;;;;;5045715;28;20534;-57
2021/04/02 02:14:13;;;;;;;2.25;1.10;;;15.60;62.20;;;;;;5046717;28;20021;-57
2021/04/02 02:16:41;;;;;;;1.88;1.23;;;15.80;59.80;;;;;;5046205;28;20522;-57
2021/04/02 02:19:12;;;;;;;3.40;1.40;;;15.80;61.30;;;;;;5046189;28;20138;-57
2021/04/02 02:21:42;;;;;;;1.65;1.20;;;15.80;60.70;;;;;;5046010;28;20037;-57
2021/04/02 02:24:09;;;;;;;2.25;1.40;;;15.90;60.40;;;;;;5046233;28;20119;-57
2021/04/02 02:26:36;;;;;;;4.95;1.58;;;16.00;59.90;;;;;;5046037;28;20024;-57
2021/04/02 02:29:02;;;;;;;1.70;1.20;;;16.00;58.30;;;;;;5046396;28;20426;-57
2021/04/02 02:31:27;;;;;;;4.22;1.35;;;15.90;57.90;;;;;;5045729;28;20702;-57
2021/04/02 02:33:53;;;;;;;2.65;1.20;;;15.80;59.00;;;;;;5046731;28;20023;-57
2021/04/02 02:36:19;;;;;;;2.65;1.20;;;15.80;59.10;;;;;;5045843;28;20102;-57
2021/04/02 02:38:45;;;;;;;2.17;1.40;;;15.80;59.00;;;;;;5048825;28;20024;-57
2021/04/02 02:41:11;;;;;;;3.17;1.17;;;15.80;59.30;;;;;;5066165;28;20093;-58
2021/04/02 02:43:36;;;;;;;1.20;0.98;;;16.00;58.80;;;;;;5065933;28;20020;-57
2021/04/02 02:46:03;;;;;;;2.38;1.42;;;16.10;59.50;;;;;;5065239;28;20103;-58
2021/04/02 02:48:29;;;;;;;2.15;1.02;;;16.20;59.60;;;;;;5065497;28;20120;-57
2021/04/02 02:50:56;;;;;;;1.13;1.00;;;16.20;59.00;;;;;;5066401;28;20518;-57
2021/04/02 02:53:26;;;;;;;1.38;1.05;;;16.30;57.10;;;;;;5066447;28;20112;-57
2021/04/02 02:55:53;;;;;;;2.63;1.10;;;16.20;57.10;;;;;;5066383;28;20020;-57
2021/04/02 02:58:23;;;;;;;3.60;1.40;;;16.10;56.60;;;;;;5067935;28;20021;-57
2021/04/02 03:00:50;;;;;;;2.17;1.15;;;16.10;57.60;;;;;;5070027;28;20063;-57
2021/04/02 03:03:18;;;;;;;3.22;1.40;;;15.80;58.00;;;;;;5069617;28;20078;-57
2021/04/02 03:05:50;;;;;;;2.55;1.10;;;15.90;57.40;;;;;;5069359;28;20060;-57
2021/04/02 03:08:19;;;;;;;2.13;1.20;;;15.60;59.80;;;;;;5067603;28;20040;-57
2021/04/02 03:10:45;;;;;;;2.63;1.35;;;15.50;62.20;;;;;;5069695;28;20387;-57
2021/04/02 03:13:16;;;;;;;2.10;1.33;;;15.30;67.30;;;;;;5069608;28;20115;-57
2021/04/02 03:15:43;;;;;;;2.70;1.35;;;15.10;69.40;;;;;;5069566;28;20082;-57
2021/04/02 03:18:14;;;;;;;3.42;1.60;;;15.00;69.00;;;;;;5069219;28;20089;-57
2021/04/02 03:20:40;;;;;;;3.35;1.35;;;14.90;70.00;;;;;;5069357;28;20021;-57
2021/04/02 03:23:08;;;;;;;2.20;1.50;;;14.90;69.70;;;;;;5069633;28;20394;-57
2021/04/02 03:25:36;;;;;;;1.92;1.25;;;14.80;70.70;;;;;;5069151;28;20118;-57
2021/04/02 03:28:03;;;;;;;2.03;1.50;;;14.80;68.20;;;;;;5069533;28;20158;-57
2021/04/02 03:30:30;;;;;;;3.95;1.70;;;14.90;68.10;;;;;;5069061;28;20032;-57
2021/04/02 03:33:23;;;;;;;4.00;1.50;;;14.90;68.40;;;;;;5069180;28;20039;-57
2021/04/02 03:35:53;;;;;;;3.80;1.50;;;14.90;68.40;;;;;;5067045;28;20041;-57
2021/04/02 03:38:22;;;;;;;3.72;1.13;;;14.60;71.90;;;;;;5068700;28;20020;-57
2021/04/02 03:40:49;;;;;;;2.85;1.33;;;14.50;71.40;;;;;;5069179;28;20029;-57
2021/04/02 03:43:16;;;;;;;4.55;1.80;;;14.80;69.10;;;;;;5069348;28;20032;-57
2021/04/02 03:45:45;;;;;;;2.00;1.30;;;15.00;68.00;;;;;;5063968;28;20027;-57
2021/04/02 03:48:14;;;;;;;2.33;1.45;;;15.00;65.80;;;;;;5048824;28;20025;-57
2021/04/02 03:50:42;;;;;;;1.80;1.30;;;15.00;61.80;;;;;;5048757;28;20033;-57
2021/04/02 03:53:23;;;;;;;3.00;1.38;;;15.30;61.30;;;;;;5048821;28;20032;-57
2021/04/02 03:55:52;;;;;;;4.03;1.67;;;15.20;64.20;;;;;;5048909;28;20032;-57
2021/04/02 03:58:20;;;;;;;1.30;1.15;;;15.20;66.40;;;;;;5048452;28;20103;-57
2021/04/02 04:01:09;;;;;;;2.08;1.10;;;15.00;67.00;;;;;;5048703;28;20037;-57
2021/04/02 04:03:38;;;;;;;2.10;1.30;;;14.70;70.90;;;;;;5056583;28;20025;-57
2021/04/02 04:06:07;;;;;;;2.33;1.00;;;14.60;69.50;;;;;;5068512;28;20364;-57
2021/04/02 04:08:33;;;;;;;1.63;1.23;;;14.60;69.50;;;;;;5067433;28;20033;-57
2021/04/02 04:11:02;;;;;;;2.20;1.10;;;14.30;71.00;;;;;;5067992;28;20033;-57
2021/04/02 04:13:29;;;;;;;2.03;1.25;;;14.30;69.30;;;;;;5068393;28;20031;-57
2021/04/02 04:15:55;;;;;;;2.08;0.95;;;14.20;66.30;;;;;;5069162;28;20025;-57
2021/04/02 04:18:22;;;;;;;1.33;0.88;;;14.40;65.90;;;;;;5068680;28;20398;-57
2021/04/02 04:20:52;;;;;;;1.20;0.90;;;14.40;66.20;;;;;;5068492;28;20416;-57
2021/04/02 04:23:19;;;;;;;1.50;1.05;;;14.50;64.50;;;;;;5068492;28;20514;-57
2021/04/02 04:25:46;;;;;;;2.53;1.15;;;14.60;64.30;;;;;;5068509;28;20040;-57
2021/04/02 04:28:15;;;;;;;2.08;0.90;;;14.80;62.30;;;;;;5068168;28;20448;-57
2021/04/02 04:30:41;;;;;;;1.20;1.10;;;14.80;62.00;;;;;;5063850;28;20037;-57
2021/04/02 04:33:08;;;;;;;2.85;1.17;;;15.00;61.60;;;;;;5048153;28;20069;-57
2021/04/02 04:35:35;;;;;;;3.80;1.40;;;14.90;62.50;;;;;;5047533;28;20017;-57
2021/04/02 04:38:05;;;;;;;3.92;1.20;;;15.10;61.40;;;;;;5066974;28;20032;-57
2021/04/02 04:40:32;;;;;;;4.03;1.85;;;15.20;61.40;;;;;;5068034;28;20923;-57
2021/04/02 04:42:59;;;;;;;1.88;1.30;;;15.10;63.50;;;;;;5068073;28;20024;-57
2021/04/02 04:45:25;;;;;;;2.55;1.55;;;15.00;63.90;;;;;;5068316;28;20052;-57
2021/04/02 04:47:51;;;;;;;3.83;1.60;;;14.80;65.00;;;;;;5067525;28;20085;-57
2021/04/02 04:50:18;;;;;;;3.13;1.50;;;14.90;62.80;;;;;;5067886;28;20466;-57
2021/04/02 04:52:58;;;;;;;3.75;1.50;;;15.10;64.00;;;;;;5067668;28;20027;-57
2021/04/02 04:55:24;;;;;;;4.03;1.90;;;14.90;63.80;;;;;;5068303;28;20067;-57
2021/04/02 04:57:53;;;;;;;4.00;1.30;;;14.70;66.80;;;;;;5068133;28;20081;-57
2021/04/02 05:00:21;;;;;;;3.60;1.60;;;14.80;66.00;;;;;;5067084;28;20466;-57
2021/04/02 05:02:47;;;;;;;4.18;1.52;;;14.60;66.80;;;;;;5067357;28;20025;-57
2021/04/02 05:05:21;;;;;;;2.40;1.55;;;14.80;66.50;;;;;;5052848;28;20036;-57
2021/04/02 05:07:48;;;;;;;3.53;1.37;;;14.80;66.10;;;;;;5047369;28;20033;-57
2021/04/02 05:10:16;;;;;;;2.38;1.60;;;14.80;66.70;;;;;;5047644;28;20259;-57
2021/04/02 05:12:45;;;;;;;3.17;1.92;;;14.70;66.00;;;;;;5047067;28;20068;-57
2021/04/02 05:15:11;;;;;;;2.53;1.55;;;14.60;66.90;;;;;;5047534;28;20792;-57
2021/04/02 05:17:39;;;;;;;2.13;1.50;;;14.40;67.30;;;;;;5045231;28;20048;-57
2021/04/02 05:20:05;;;;;;;3.85;1.63;;;14.30;68.00;;;;;;5046935;28;20025;-57
2021/04/02 05:22:31;;;;;;;1.80;1.33;;;14.30;68.20;;;;;;5047215;28;20037;-57
2021/04/02 05:24:57;;;;;;;2.13;1.50;;;14.10;67.70;;;;;;5047212;28;20036;-57
2021/04/02 05:27:23;;;;;;;2.65;1.50;;;14.00;68.00;;;;;;5047276;28;20029;-57
2021/04/02 05:29:49;;;;;;;3.67;1.60;;;14.10;68.70;;;;;;5047216;28;20029;-57
2021/04/02 05:32:15;;;;;;;3.53;1.60;;;13.90;68.80;;;;;;5063950;28;20036;-57
2021/04/02 05:34:41;;;;;;;2.90;1.63;;;13.80;69.20;;;;;;5064883;28;20028;-57
2021/04/02 05:37:07;;;;;;;4.40;1.50;;;13.70;69.10;;;;;;5066918;28;20031;-57
2021/04/02 05:39:32;;;;;;;3.97;1.80;;;13.70;69.30;;;;;;5066536;28;20049;-57
2021/04/02 05:42:09;;;;;;;2.08;1.42;;;13.80;68.90;;;;;;5067050;28;20541;-57
2021/04/02 05:44:38;;;;;;;3.63;1.70;;;13.70;69.00;;;;;;5066628;28;20025;-56
2021/04/02 05:47:09;;;;;;;3.60;1.60;;;13.80;70.00;;;;;;5066427;28;20036;-57
2021/04/02 05:49:36;;;;;;;1.80;1.30;;;13.70;72.70;;;;;;5065941;28;20037;-57
2021/04/02 05:52:03;;;;;;;2.97;1.42;;;13.40;77.40;;;;;;5066702;28;20483;-57
2021/04/02 05:54:33;;;;;;;3.90;1.60;;;13.30;79.20;;;;;;5066151;28;20475;-57
2021/04/02 05:57:00;;;;;;;4.20;2.08;;;13.20;79.50;;;;;;5066460;28;20112;-57
2021/04/02 05:59:26;;;;;;;5.00;1.65;;;13.40;79.80;;;;;;5066391;28;20652;-57
2021/04/02 06:01:52;;;;;;;4.82;1.92;;;13.50;78.00;;;;;;5053458;28;20041;-57
2021/04/02 06:04:18;;;;;;;2.97;1.55;;;13.60;78.30;;;;;;5066265;28;20056;-57
2021/04/02 06:06:48;;;;;;;4.07;2.20;;;13.60;78.20;;;;;;5059303;28;20147;-56
2021/04/02 06:09:14;;;;;;;4.00;2.45;;;13.70;77.50;;;;;;5046137;28;20036;-57
2021/04/02 06:11:41;;;;;;;5.07;2.22;;;13.60;76.60;;;;;;5046028;28;20036;-57
2021/04/02 06:14:09;;;;;;;5.30;2.03;;;13.60;77.80;;;;;;5046418;28;20028;-57
2021/04/02 06:16:35;;;;;;;3.78;2.42;;;13.60;77.90;;;;;;5059303;28;20027;-57
2021/04/02 06:19:09;;;;;;;5.50;2.03;;;13.50;77.70;;;;;;5065806;28;20491;-56
2021/04/02 06:21:54;;;;;;;4.15;2.60;;;13.60;77.10;;;;;;5066047;28;20048;-57
2021/04/02 06:24:37;;;;;;;4.60;2.72;;;13.70;77.20;;;;;;5066474;28;20033;-57
2021/04/02 06:27:04;;;;;;;7.28;2.95;;;13.90;75.00;;;;;;5066173;28;20028;-57
2021/04/02 06:29:35;;;;;;;5.15;2.22;;;13.80;75.20;;;;;;5061967;28;20167;-56
2021/04/02 06:32:02;;;;;;;3.38;2.05;;;13.90;74.10;;;;;;5063524;28;20475;-57
2021/04/02 06:34:28;;;;;;;5.55;2.70;;;14.00;74.20;;;;;;5064340;28;20058;-57
2021/04/02 06:37:02;;;;;;;3.63;2.03;;;14.10;73.70;;;;;;5053909;28;20573;-57
2021/04/02 06:39:32;;;;;;;;;;;13.90;75.30;;;;;;5044808;28;20021;-57
2021/04/02 06:42:01;;;;;;;3.53;2.03;;;14.10;75.80;;;;;;5044396;28;19905;-57
2021/04/02 06:44:30;;;;;;;3.03;1.80;;;14.20;74.60;;;;;;5047335;28;20037;-57
2021/04/02 06:46:58;;;;;;;6.93;2.13;;;14.30;74.50;;;;;;5043648;28;20297;-57
2021/04/02 06:49:25;;;;;;;5.15;2.70;;;14.40;75.00;;;;;;5044486;28;20037;-57
2021/04/02 06:51:53;;;;;;;7.65;2.47;;;14.40;75.00;;;;;;5056794;28;20036;-57
2021/04/02 06:54:22;;;;;;;4.90;2.75;;;14.50;73.50;;;;;;5053131;28;20053;-57
2021/04/02 06:56:50;;;;;;;4.50;2.67;;;14.60;74.40;;;;;;5053479;28;20771;-57
2021/04/02 06:59:19;;;;;;;5.57;2.03;;;14.50;75.40;;;;;;5063109;28;20052;-57
2021/04/02 07:01:48;;;;;;;4.25;2.60;;;14.40;76.00;;;;;;5063217;28;20033;-57
2021/04/02 07:04:16;;;;;;;3.22;2.05;;;14.40;75.40;;;;;;5064415;28;20021;-57
2021/04/02 07:06:42;;;;;;;3.42;2.10;;;14.40;75.30;;;;;;5058452;28;20028;-57
2021/04/02 07:09:15;;;;;;;5.20;2.20;;;14.50;75.30;;;;;;5061019;28;20529;-57
2021/04/02 07:11:42;;;;;;;3.20;1.80;;;14.60;75.50;;;;;;5050234;28;20025;-57
2021/04/02 07:14:09;;;;;;;5.57;1.90;;;14.60;74.10;;;;;;5047937;28;20116;-57
2021/04/02 07:16:36;;;;;;;2.72;1.85;;;14.70;73.70;;;;;;5043793;28;20021;-57
2021/04/02 07:19:03;;;;;;;3.58;1.90;;;14.70;72.70;;;;;;5043458;28;20140;-57
2021/04/02 07:21:33;;;;;;;6.10;1.52;;;14.80;72.20;;;;;;5056844;28;20024;-57
2021/04/02 07:24:01;;;;;;;2.45;1.30;;;14.80;72.00;;;;;;5049665;28;20124;-57
2021/04/02 07:26:28;;;;;;;3.78;1.63;;;14.90;71.60;;;;;;5043140;28;20039;-58
2021/04/02 07:28:55;;;;;;;3.30;1.50;;;15.00;69.10;;;;;;5046390;28;20050;-58
2021/04/02 07:31:22;;;;;;;3.00;1.27;;;15.10;68.50;;;;;;5043961;28;20029;-58
2021/04/02 07:33:48;;;;;;;2.72;1.42;;;15.10;67.70;;;;;;5043857;28;20031;-58
2021/04/02 07:36:17;;;;;;;1.52;1.10;;;15.20;67.30;;;;;;5043865;28;20491;-58
2021/04/02 07:38:49;;;;;;;1.75;1.02;;;15.20;67.30;;;;;;5043469;28;20439;-58
2021/04/02 07:41:17;;;;;;;2.83;1.58;;;15.30;67.70;;;;;;5044146;28;20021;-58
2021/04/02 07:43:50;;;;;;;2.17;1.30;;;15.30;66.30;;;;;;5044628;28;20510;-58
2021/04/02 07:46:19;;;;;;;1.90;1.20;;;15.30;65.80;;;;;;5047024;28;20024;-58
2021/04/02 07:48:49;;;;;;;2.35;1.10;;;15.40;65.70;;;;;;5046666;28;20029;-58
2021/04/02 07:51:15;;;;;;;2.85;1.40;;;15.50;66.50;;;;;;5047418;28;20025;-58
2021/04/02 07:53:44;;;;;;;1.98;1.10;;;15.50;66.00;;;;;;5046857;28;20501;-58
2021/04/02 07:56:16;;;;;;;3.47;1.00;;;15.60;67.10;;;;;;5047217;28;20100;-58
2021/04/02 07:58:51;;;;;;;2.03;1.10;;;15.60;69.20;;;;;;5046788;28;20029;-58
2021/04/02 08:01:23;;;;;;;2.25;1.10;;;15.70;69.80;;;;;;5046703;28;20025;-60
2021/04/02 08:03:52;;;;;;;2.25;1.33;;;15.70;69.70;;;;;;5047121;28;20021;-58
2021/04/02 08:06:31;;;;;;;6.07;1.90;;;15.80;69.30;;;;;;5046683;28;20033;-58
2021/04/02 08:08:57;;;;;;;6.70;1.50;;;15.70;69.30;;;;;;5046771;28;20041;-58
2021/04/02 08:11:29;;;;;;;5.70;1.80;;;15.80;69.30;;;;;;5047251;28;20035;-58
2021/04/02 08:14:09;;;;;;;2.50;1.33;;;15.80;70.30;;;;;;5047389;28;20029;-58
2021/04/02 08:16:54;;;;;;;1.92;1.45;;;15.80;69.60;;;;;;5046659;28;20415;-58
2021/04/02 08:19:25;;;;;;;2.35;1.40;;;15.70;71.00;;;;;;5047075;28;20104;-58
2021/04/02 08:22:01;;;;;;;1.73;1.33;;;15.60;70.90;;;;;;5047421;28;20017;-58
2021/04/02 08:24:30;;;;;;;2.10;1.13;;;15.70;71.10;;;;;;5046517;28;20033;-58
2021/04/02 08:26:57;;;;;;;1.90;1.13;;;15.70;70.30;;;;;;5046734;28;20029;-58
2021/04/02 08:29:25;;;;;;;2.38;1.00;;;15.80;70.70;;;;;;5045538;28;20042;-58
2021/04/02 08:31:56;;;;;;;2.00;1.20;;;15.90;69.70;;;;;;5046465;28;20028;-57
2021/04/02 08:34:24;;;;;;;1.40;1.00;;;15.80;69.90;;;;;;5046729;28;20414;-58
2021/04/02 08:36:54;;;;;;;1.08;0.98;;;15.90;70.60;;;;;;5046533;28;20854;-57
2021/04/02 08:39:24;;;;;;;1.73;1.08;;;16.00;70.20;;;;;;5046491;28;20460;-58
2021/04/02 08:42:02;;;;;;;2.05;1.08;;;16.20;71.90;;;;;;5046845;28;20036;-58
2021/04/02 08:44:31;;;;;;;2.90;1.35;;;16.20;71.00;;;;;;5045852;28;20029;-58
2021/04/02 08:47:00;;;;;;;2.15;1.23;;;16.40;69.40;;;;;;5046584;28;20356;-58
2021/04/02 08:49:39;;;;;;;1.77;0.95;;;16.40;69.50;;;;;;5046471;28;20029;-58
2021/04/02 08:52:18;;;;;;;1.92;1.00;;;16.50;68.80;;;;;;5046369;28;20028;-58
2021/04/02 08:54:47;;;;;;;1.75;1.15;;;16.30;68.10;;;;;;5045930;28;20044;-58
2021/04/02 08:57:14;;;;;;;1.85;1.13;;;16.30;67.50;;;;;;5045733;28;20321;-58
2021/04/02 08:59:45;;;;;;;3.08;1.38;;;16.40;67.20;;;;;;5045234;28;20495;-58
2021/04/02 09:02:15;;;;;;;2.13;1.00;;;16.50;67.90;;;;;;5045962;28;20025;-58
2021/04/02 09:04:42;;;;;;;1.70;0.85;;;16.60;67.80;;;;;;5045936;28;20120;-58
2021/04/02 09:07:08;;;;;;;0.95;0.65;;;16.70;66.90;;;;;;5046012;28;20519;-58
2021/04/02 09:09:34;;;;;;;2.03;1.15;;;16.80;66.80;;;;;;5047752;28;20075;-58
2021/04/02 09:12:11;;;;;;;0.85;0.85;;;16.70;66.90;;;;;;5047140;28;20399;-58
2021/04/02 09:14:58;;;;;;;7.00;1.00;;;17.00;66.90;;;;;;5057845;28;20514;-58
2021/04/02 09:17:26;;;;;;;1.10;1.00;;;17.00;66.20;;;;;;5049497;28;20047;-58
2021/04/02 09:19:53;;;;;;;2.08;1.33;;;16.90;66.70;;;;;;5046434;28;20086;-58
2021/04/02 09:22:20;;;;;;;1.30;0.90;;;17.00;65.50;;;;;;5045450;28;20469;-58
2021/04/02 09:24:47;;;;;;;1.40;0.93;;;17.00;65.00;;;;;;5045234;28;20587;-58
2021/04/02 09:27:18;;;;;;;1.30;1.00;;;16.90;65.40;;;;;;5045293;28;20260;-57
2021/04/02 09:29:45;;;;;;;2.47;1.13;;;16.90;65.00;;;;;;5060391;28;20033;-58
2021/04/02 09:32:11;;;;;;;2.42;1.17;;;16.90;65.30;;;;;;5064442;28;20486;-57
2021/04/02 09:34:37;;;;;;;1.48;0.77;;;16.90;65.10;;;;;;5061565;28;20110;-59
2021/04/02 09:37:04;;;;;;;1.05;0.80;;;17.10;65.00;;;;;;5045365;28;20051;-59
2021/04/02 09:39:31;;;;;;;1.42;1.00;;;17.20;64.90;;;;;;5048215;28;20036;-59
2021/04/02 09:42:00;;;;;;;1.20;0.98;;;17.30;64.80;;;;;;5055041;28;20033;-59
2021/04/02 09:44:33;;;;;;;1.90;0.98;;;17.20;65.20;;;;;;5064922;28;20505;-61
2021/04/02 09:47:12;;;;;;;5.03;1.50;;;17.20;65.10;;;;;;5047028;28;20055;-59
2021/04/02 09:49:38;;;;;;;2.45;1.48;;;17.10;66.50;;;;;;5058951;28;20036;-60
2021/04/02 09:52:07;;;;;;;1.92;1.30;;;17.00;67.00;;;;;;5065066;28;20016;-58
2021/04/02 09:54:34;;;;;;;2.50;1.45;;;17.30;67.70;;;;;;5058962;28;20048;-58
2021/04/02 09:57:08;;;;;;;3.28;1.42;;;17.20;67.80;;;;;;5061982;28;20036;-56
2021/04/02 09:59:35;;;;;;;1.95;1.55;;;17.20;68.20;;;;;;5044159;28;20036;-57
2021/04/02 10:02:02;;;;;;;3.75;1.70;;;17.20;66.60;;;;;;5043864;28;20116;-59
2021/04/02 10:04:28;;;;;;;2.63;1.52;;;17.30;66.60;;;;;;5044407;28;20025;-56
2021/04/02 10:06:54;;;;;;;3.33;1.58;;;17.40;70.40;;;;;;5055570;28;20023;-56
2021/04/02 10:09:20;;;;;;;2.50;1.55;;;17.40;70.60;;;;;;5059258;28;20040;-56
2021/04/02 10:11:48;;;;;;;4.07;1.70;;;17.50;70.30;;;;;;5065250;28;20046;-56
2021/04/02 10:14:17;;;;;;;2.85;1.67;;;17.70;70.00;;;;;;5064376;28;20032;-56
2021/04/02 10:16:45;;;;;;;2.40;1.80;;;17.50;69.10;;;;;;5060633;28;20024;-56
2021/04/02 10:19:11;;;;;;;4.30;2.05;;;17.50;69.80;;;;;;5056429;28;20130;-56
2021/04/02 10:21:37;;;;;;;2.30;1.70;;;17.60;71.30;;;;;;5065418;28;20561;-56
2021/04/02 10:24:04;;;;;;;2.35;1.75;;;17.80;69.90;;;;;;5063684;28;20032;-57
2021/04/02 10:26:30;;;;;;;1.58;1.40;;;17.80;69.10;;;;;;5048632;28;20060;-56
2021/04/02 10:28:56;;;;;;;1.40;1.10;;;18.00;69.50;;;;;;5051600;28;20024;-56
2021/04/02 10:31:22;;;;;;;2.65;1.25;;;18.20;72.00;;;;;;5058723;28;20031;-59
2021/04/02 10:33:49;;;;;;;1.73;1.40;;;18.40;70.50;;;;;;5056390;28;20076;-56
2021/04/02 10:36:14;;;;;;;2.35;1.50;;;18.40;69.60;;;;;;5046732;28;20477;-56
2021/04/02 10:38:41;;;;;;;2.30;1.67;;;18.40;69.20;;;;;;5045565;28;20159;-57
2021/04/02 10:41:06;;;;;;;1.95;1.35;;;18.30;68.40;;;;;;5048503;28;20490;-57
2021/04/02 10:43:32;;;;;;;3.28;1.95;;;18.30;67.60;;;;;;5054365;28;20079;-57
2021/04/02 10:46:02;;;;;;;2.85;1.80;;;18.30;66.10;;;;;;5045313;28;20033;-57
2021/04/02 10:48:27;;;;;;;4.40;2.47;;;18.30;68.70;;;;;;5049126;28;20670;-57
2021/04/02 10:50:54;;;;;;;2.38;2.00;;;18.30;69.90;;;;;;5066065;28;20035;-57
2021/04/02 10:53:21;;;;;;;3.25;2.08;;;18.40;69.20;;;;;;5046818;28;20120;-57
2021/04/02 10:55:48;;;;;;;3.97;2.15;;;18.50;70.70;;;;;;5060934;28;20037;-59
2021/04/02 10:58:13;;;;;;;3.03;1.83;;;18.70;70.50;;;;;;5050075;28;20040;-58
2021/04/02 11:00:39;;;;;;;2.75;2.17;;;18.70;71.00;;;;;;5057886;28;20036;-57
2021/04/02 11:03:06;;;;;;;3.50;1.55;;;18.80;71.60;;;;;;5045245;28;20033;-57
2021/04/02 11:05:33;;;;;;;3.63;1.83;;;18.80;71.60;;;;;;5045679;28;20167;-57
2021/04/02 11:07:59;;;;;;;1.70;1.58;;;19.10;71.30;;;;;;5046271;28;20037;-57
2021/04/02 11:10:26;;;;;;;1.20;1.10;;;19.30;69.40;;;;;;5064007;28;20048;-57
2021/04/02 11:12:52;;;;;;;2.08;1.20;;;19.50;69.00;;;;;;5054029;28;20136;-57
2021/04/02 11:15:19;;;;;;;2.22;1.25;;;19.60;69.50;;;;;;5058296;28;20388;-57
2021/04/02 11:17:47;;;;;;;1.52;1.42;;;19.70;68.70;;;;;;5058909;28;20036;-57
2021/04/02 11:20:19;;;;;;;3.15;2.10;;;19.50;69.30;;;;;;5055429;28;20058;-57
2021/04/02 11:22:45;;;;;;;3.08;2.15;;;19.50;69.90;;;;;;5052550;28;20197;-57
2021/04/02 11:25:13;;;;;;;2.72;1.98;;;19.60;69.10;;;;;;5053746;28;20028;-57
2021/04/02 11:27:39;;;;;;;2.47;1.60;;;19.70;68.90;;;;;;5062319;28;20031;-57
2021/04/02 11:30:08;;;;;;;2.08;1.30;;;19.90;66.20;;;;;;5066087;28;20173;-57
2021/04/02 11:32:34;;;;;;;2.75;1.60;;;20.00;68.20;;;;;;5066334;28;20107;-57
2021/04/02 11:35:00;;;;;;;4.65;2.60;;;20.00;68.70;;;;;;5055889;28;20031;-58
2021/04/02 11:37:26;;;;;;;2.53;1.80;;;19.90;69.20;;;;;;5057933;28;20025;-58
2021/04/02 11:39:51;;;;;;;3.10;2.10;;;20.10;71.20;;;;;;5059207;28;20039;-57
2021/04/02 11:42:18;;;;;;;3.50;2.45;;;20.00;69.00;;;;;;5056309;28;20128;-57
2021/04/02 11:44:44;;;;;;;2.85;2.00;;;20.10;69.20;;;;;;5048937;28;20063;-58
2021/04/02 11:47:10;;;;;;;4.90;2.78;;;20.20;68.30;;;;;;5049744;28;20504;-58
2021/04/02 11:49:38;;;;;;;3.67;2.22;;;20.10;67.30;;;;;;5066668;28;20032;-58
2021/04/02 11:52:05;;;;;;;3.28;1.98;;;20.40;68.30;;;;;;5060106;28;20021;-58
2021/04/02 11:54:31;;;;;;;2.33;1.40;;;20.70;69.80;;;;;;5054437;28;20647;-58
2021/04/02 11:56:57;;;;;;;3.70;1.70;;;21.10;69.30;;;;;;5057018;28;20070;-58
2021/04/02 11:59:23;;;;;;;1.88;1.30;;;21.10;68.00;;;;;;5052247;28;20025;-59
2021/04/02 12:01:49;;;;;;;2.60;1.58;;;21.30;70.30;;;;;;5061223;28;20063;-59
2021/04/02 12:04:16;;;;;;;5.53;2.60;;;21.50;68.60;;;;;;5055400;28;20028;-58
2021/04/02 12:06:41;;;;;;;7.13;2.70;;;21.20;70.00;;;;;;5046983;28;20115;-58
2021/04/02 12:09:11;;;;;;;2.50;1.92;;;21.20;69.40;;;;;;5061004;28;20525;-59
2021/04/02 12:11:38;;;;;;;2.80;2.22;;;21.40;69.80;;;;;;5062046;28;20043;-60
2021/04/02 12:14:06;;;;;;;2.55;1.90;;;21.50;69.80;;;;;;5046900;28;20025;-59
2021/04/02 12:16:32;;;;;;;2.20;1.48;;;21.60;71.20;;;;;;5056862;28;20040;-59
2021/04/02 12:18:58;;;;;;;1.75;1.35;;;21.80;69.40;;;;;;5077118;28;20383;-58
2021/04/02 12:21:24;;;;;;;4.63;1.98;;;22.10;69.50;;;;;;5070679;28;20040;-59
2021/04/02 12:23:50;;;;;;;2.50;2.08;;;21.90;69.10;;;;;;5065688;28;20377;-59
2021/04/02 12:26:16;;;;;;;3.83;2.35;;;21.60;70.60;;;;;;5047077;28;20105;-59
2021/04/02 12:28:42;;;;;;;3.45;2.03;;;21.80;70.50;;;;;;5054964;28;20442;-58
2021/04/02 12:31:09;;;;;;;1.75;1.65;;;22.00;71.40;;;;;;5055384;28;20052;-59
2021/04/02 12:33:35;;;;;;;3.67;2.20;;;22.20;68.10;;;;;;5066754;28;20029;-59
2021/04/02 12:36:00;;;;;;;4.00;1.90;;;22.10;67.30;;;;;;5055391;28;20025;-59
2021/04/02 12:38:26;;;;;;;3.83;2.28;;;22.00;68.00;;;;;;5061175;28;20097;-59
2021/04/02 12:40:53;;;;;;;3.90;2.20;;;22.10;68.70;;;;;;5052554;28;20572;-59
2021/04/02 12:43:19;;;;;;;4.63;2.28;;;22.00;68.10;;;;;;5055540;28;20060;-59
2021/04/02 12:45:45;;;;;;;3.70;2.15;;;22.00;67.60;;;;;;5066575;28;20059;-59
2021/04/02 12:48:11;;;;;;;2.75;1.88;;;22.10;67.00;;;;;;5047581;28;20075;-59
2021/04/02 12:50:37;;;;;;;4.18;2.60;;;22.60;66.90;;;;;;5052317;28;20032;-59
2021/04/02 12:53:03;;;;;;;5.05;2.45;;;22.10;66.60;;;;;;5065534;28;20085;-59
2021/04/02 12:55:30;;;;;;;4.15;2.35;;;22.30;67.60;;;;;;5066425;28;20089;-60